Time;durP1;ratioP1;P1;durP2;ratioP2;P2;SDS_P1;SDS_P2;PMS_P1;PMS_P2;Temp;Humidity;BMP_temperature;BMP_pressure;BME280_temperature;BME280_humidity;BME280_pressure;Samples;Min_cycle;Max_cycle;Signal;HPM_P1;HPM_P2
2023/10/03 00:00:24;;;;;;;10.43;3.25;;;14.30;99.90;;;;;;5028635;28;20067;-77
2023/10/03 00:02:55;;;;;;;7.57;2.95;;;14.30;99.90;;;;;;5054627;28;20068;-77
2023/10/03 00:05:28;;;;;;;7.70;2.97;;;14.30;99.90;;;;;;5051386;28;20044;-77
2023/10/03 00:07:56;;;;;;;8.52;2.97;;;14.30;99.90;;;;;;5045511;28;20080;-77
2023/10/03 00:10:24;;;;;;;7.93;3.22;;;14.20;99.90;;;;;;5040095;28;22668;-77
2023/10/03 00:12:52;;;;;;;6.80;3.40;;;14.30;99.90;;;;;;5040169;28;20056;-77
2023/10/03 00:15:23;;;;;;;7.63;2.90;;;14.20;99.90;;;;;;5046817;28;20108;-77
2023/10/03 00:17:52;;;;;;;7.70;2.92;;;14.30;99.90;;;;;;5018788;28;20049;-77
2023/10/03 00:20:22;;;;;;;9.05;3.45;;;14.30;99.90;;;;;;5045267;28;22539;-77
2023/10/03 00:22:51;;;;;;;8.88;2.85;;;14.20;99.90;;;;;;5052306;28;20430;-77
2023/10/03 00:25:19;;;;;;;9.13;3.13;;;14.20;99.90;;;;;;5034446;28;20118;-77
2023/10/03 00:27:49;;;;;;;7.85;3.00;;;14.20;99.90;;;;;;5047566;28;20522;-77
2023/10/03 00:30:23;;;;;;;7.55;3.40;;;14.10;99.90;;;;;;5053026;28;20530;-77
2023/10/03 00:32:57;;;;;;;6.38;3.05;;;14.10;99.90;;;;;;5034146;28;20143;-77
2023/10/03 00:35:29;;;;;;;7.72;3.67;;;14.10;99.90;;;;;;5022714;28;20064;-77
2023/10/03 00:37:56;;;;;;;9.07;3.30;;;14.10;99.90;;;;;;5034956;28;20057;-77
2023/10/03 00:42:54;;;;;;;7.43;2.92;;;14.10;99.90;;;;;;5044720;28;20057;-77
2023/10/03 00:45:22;;;;;;;7.22;3.63;;;14.00;99.90;;;;;;5016031;28;20060;-77
2023/10/03 00:47:51;;;;;;;9.38;2.92;;;14.00;99.90;;;;;;5044510;28;20052;-77
2023/10/03 00:50:20;;;;;;;8.27;3.20;;;14.00;99.90;;;;;;5043170;28;20500;-77
2023/10/03 00:53:32;;;;;;;7.57;3.15;;;14.00;99.90;;;;;;5026221;28;20078;-77
2023/10/03 00:55:42;;;;;;;6.80;2.78;;;14.00;99.90;;;;;;5039456;28;20119;-77
2023/10/03 01:00:50;;;;;;;9.38;3.10;;;13.90;99.90;;;;;;5061187;28;20526;-77
2023/10/03 01:03:39;;;;;;;7.50;2.90;;;13.90;99.90;;;;;;5022571;28;20045;-77
2023/10/03 01:06:09;;;;;;;8.68;3.47;;;13.90;99.90;;;;;;5062223;28;20075;-77
2023/10/03 01:08:43;;;;;;;8.35;3.15;;;13.90;99.90;;;;;;5026443;28;20140;-77
2023/10/03 01:11:28;;;;;;;7.28;3.80;;;13.90;99.90;;;;;;5040651;28;20052;-77
2023/10/03 01:13:59;;;;;;;7.47;3.03;;;13.90;99.90;;;;;;5053129;28;22405;-77
2023/10/03 01:18:59;;;;;;;9.55;3.88;;;13.80;99.90;;;;;;5045405;28;20041;-77
2023/10/03 01:21:29;;;;;;;6.57;3.45;;;13.80;99.90;;;;;;5023413;28;20206;-77
2023/10/03 01:23:56;;;;;;;7.03;3.00;;;13.80;99.90;;;;;;5028790;28;20656;-77
2023/10/03 01:26:24;;;;;;;7.38;3.28;;;13.80;99.90;;;;;;5045803;28;20056;-77
2023/10/03 01:28:52;;;;;;;8.15;3.53;;;13.80;99.90;;;;;;5022399;28;20464;-77
2023/10/03 01:31:19;;;;;;;6.80;2.97;;;13.80;99.90;;;;;;5029336;28;20041;-77
2023/10/03 01:33:47;;;;;;;10.73;3.17;;;13.80;99.90;;;;;;5046651;28;20474;-77
2023/10/03 01:36:14;;;;;;;7.85;3.28;;;13.70;99.90;;;;;;5029912;28;20134;-77
2023/10/03 01:38:42;;;;;;;10.52;3.70;;;13.70;99.90;;;;;;5027819;28;20396;-77
2023/10/03 01:41:09;;;;;;;9.40;3.25;;;13.70;99.90;;;;;;5043224;28;20080;-77
2023/10/03 01:43:38;;;;;;;8.88;3.17;;;13.70;99.90;;;;;;5043668;28;20139;-77
2023/10/03 01:46:07;;;;;;;8.20;3.55;;;13.70;99.90;;;;;;5045254;28;20041;-77
2023/10/03 01:48:35;;;;;;;7.68;3.22;;;13.70;99.90;;;;;;5045075;28;20048;-77
2023/10/03 01:51:03;;;;;;;9.13;2.92;;;13.70;99.90;;;;;;5043454;28;20041;-77
2023/10/03 01:53:34;;;;;;;10.23;3.33;;;13.70;99.90;;;;;;5044720;28;20148;-77
2023/10/03 01:56:04;;;;;;;8.27;2.78;;;13.60;99.90;;;;;;5022111;28;20052;-77
2023/10/03 01:58:32;;;;;;;8.85;3.28;;;13.60;99.90;;;;;;5044138;28;20037;-77
2023/10/03 02:00:59;;;;;;;8.60;3.25;;;13.60;99.90;;;;;;5043881;28;20103;-76
2023/10/03 02:03:29;;;;;;;9.25;2.97;;;13.60;99.90;;;;;;5036055;28;20087;-77
2023/10/03 02:05:56;;;;;;;11.27;3.22;;;13.60;99.90;;;;;;5045570;28;20118;-77
2023/10/03 02:08:25;;;;;;;7.25;2.90;;;13.60;99.90;;;;;;5043140;28;20048;-76
2023/10/03 02:10:53;;;;;;;8.43;2.85;;;13.60;99.90;;;;;;5048001;28;20041;-77
2023/10/03 02:13:24;;;;;;;7.97;2.90;;;13.50;99.90;;;;;;5031095;28;20144;-77
2023/10/03 02:15:53;;;;;;;9.55;3.22;;;13.50;99.90;;;;;;5034138;28;20512;-77
2023/10/03 02:18:21;;;;;;;6.85;3.10;;;13.50;99.90;;;;;;5042770;28;20037;-77
2023/10/03 02:20:52;;;;;;;8.48;2.90;;;13.50;99.90;;;;;;5047837;28;20067;-77
2023/10/03 02:23:25;;;;;;;9.65;2.83;;;13.50;99.90;;;;;;5043141;28;20059;-77
2023/10/03 02:25:53;;;;;;;;;;;13.50;99.90;;;;;;5026787;28;20110;-77
2023/10/03 02:28:21;;;;;;;10.82;2.97;;;13.40;99.90;;;;;;5031911;28;20291;-77
2023/10/03 02:30:50;;;;;;;7.88;3.05;;;13.40;99.90;;;;;;5023975;28;20041;-76
2023/10/03 02:33:21;;;;;;;9.50;3.45;;;13.40;99.90;;;;;;5031779;28;20052;-76
2023/10/03 02:35:50;;;;;;;8.02;3.15;;;13.40;99.90;;;;;;5028546;28;20044;-76
2023/10/03 02:38:29;;;;;;;9.70;3.70;;;13.40;99.90;;;;;;5039367;28;20040;-76
2023/10/03 02:40:58;;;;;;;8.82;3.38;;;13.40;99.90;;;;;;5045770;28;22468;-77
2023/10/03 02:43:46;;;;;;;11.77;3.50;;;13.40;99.90;;;;;;5035528;28;20391;-77
2023/10/03 02:46:26;;;;;;;8.93;3.33;;;13.40;99.90;;;;;;5027699;28;20471;-76
2023/10/03 02:48:55;;;;;;;12.75;3.00;;;13.40;99.90;;;;;;5041204;28;20050;-76
2023/10/03 02:51:23;;;;;;;9.38;3.85;;;13.40;99.90;;;;;;5042700;28;22682;-76
2023/10/03 02:53:51;;;;;;;6.65;3.10;;;13.40;99.90;;;;;;5021101;28;20053;-76
2023/10/03 02:56:18;;;;;;;5.50;2.38;;;13.30;99.90;;;;;;5022880;28;20138;-76
2023/10/03 02:58:45;;;;;;;6.03;2.65;;;13.30;99.90;;;;;;5036560;28;22520;-76
2023/10/03 03:01:13;;;;;;;6.45;2.65;;;13.30;99.90;;;;;;5044416;28;20088;-76
2023/10/03 03:03:42;;;;;;;6.95;3.05;;;13.30;99.90;;;;;;5043025;28;21068;-76
2023/10/03 03:06:12;;;;;;;7.30;2.88;;;13.30;99.90;;;;;;5046196;28;20136;-76
2023/10/03 03:08:39;;;;;;;7.80;3.40;;;13.30;99.90;;;;;;5025502;28;20462;-76
2023/10/03 03:11:11;;;;;;;8.55;2.95;;;13.20;99.90;;;;;;5049669;28;20108;-76
2023/10/03 03:13:38;;;;;;;9.25;2.95;;;13.30;99.90;;;;;;5044907;28;20048;-76
2023/10/03 03:16:06;;;;;;;8.02;2.95;;;13.20;99.90;;;;;;5063107;28;20125;-76
2023/10/03 03:18:40;;;;;;;7.82;2.83;;;13.20;99.90;;;;;;5043765;28;23418;-76
2023/10/03 03:21:14;;;;;;;8.25;2.97;;;13.20;99.90;;;;;;5029925;28;20056;-76
2023/10/03 03:23:55;;;;;;;6.55;3.20;;;13.20;99.90;;;;;;5036741;28;20060;-76
2023/10/03 03:26:35;;;;;;;7.15;3.40;;;13.10;99.90;;;;;;5046844;28;20037;-76
2023/10/03 03:29:20;;;;;;;9.25;3.65;;;13.10;99.90;;;;;;5048662;28;20053;-76
2023/10/03 03:31:50;;;;;;;9.38;3.30;;;13.20;99.90;;;;;;5045616;28;20510;-76
2023/10/03 03:34:17;;;;;;;9.02;2.90;;;13.20;99.90;;;;;;5047175;28;22526;-76
2023/10/03 03:36:46;;;;;;;10.85;3.20;;;13.10;99.90;;;;;;5046961;28;23051;-76
2023/10/03 03:39:15;;;;;;;8.48;3.22;;;13.10;99.90;;;;;;5045846;28;22611;-76
2023/10/03 03:41:43;;;;;;;9.48;3.08;;;13.10;99.90;;;;;;5033943;28;20038;-76
2023/10/03 03:44:13;;;;;;;9.68;2.72;;;13.10;99.90;;;;;;5049535;28;20927;-76
2023/10/03 03:46:41;;;;;;;6.47;2.97;;;13.10;99.90;;;;;;5046104;28;20063;-76
2023/10/03 03:49:09;;;;;;;7.30;2.83;;;13.00;99.90;;;;;;5036865;28;20231;-76
2023/10/03 03:51:37;;;;;;;8.68;2.88;;;13.00;99.90;;;;;;5046591;28;20100;-76
2023/10/03 03:54:09;;;;;;;9.40;3.33;;;13.00;99.90;;;;;;5049943;28;20041;-76
2023/10/03 03:56:36;;;;;;;11.37;3.60;;;13.00;99.90;;;;;;5047510;28;20044;-76
2023/10/03 03:59:05;;;;;;;7.25;2.97;;;13.00;99.90;;;;;;5028659;28;20068;-76
2023/10/03 04:01:33;;;;;;;9.98;3.17;;;13.00;99.90;;;;;;5047191;28;20053;-76
2023/10/03 04:04:03;;;;;;;5.82;2.78;;;13.00;99.90;;;;;;5047049;28;20056;-76
2023/10/03 04:06:32;;;;;;;6.53;2.63;;;13.00;99.90;;;;;;5045248;28;20702;-76
2023/10/03 04:08:59;;;;;;;6.40;3.17;;;13.00;99.90;;;;;;5049489;28;20049;-76
2023/10/03 04:11:36;;;;;;;10.98;3.78;;;13.00;99.90;;;;;;5048224;28;20049;-76
2023/10/03 04:14:05;;;;;;;8.95;3.45;;;12.90;99.90;;;;;;5029971;28;20048;-76
2023/10/03 04:16:43;;;;;;;11.65;4.35;;;12.90;99.90;;;;;;5034932;28;20076;-76
2023/10/03 04:19:11;;;;;;;8.38;3.00;;;12.90;99.90;;;;;;5050678;28;20040;-76
2023/10/03 04:21:40;;;;;;;6.97;3.17;;;12.90;99.90;;;;;;5047112;28;20037;-76
2023/10/03 04:24:10;;;;;;;10.98;3.53;;;12.90;99.90;;;;;;5043682;28;20414;-76
2023/10/03 04:26:42;;;;;;;10.93;3.13;;;12.90;99.90;;;;;;5025380;28;20041;-76
2023/10/03 04:29:11;;;;;;;11.15;3.85;;;12.80;99.90;;;;;;5045463;28;21059;-76
2023/10/03 04:31:38;;;;;;;7.07;2.80;;;12.90;99.90;;;;;;5035992;28;20106;-76
2023/10/03 04:34:07;;;;;;;10.00;3.90;;;12.90;99.90;;;;;;5028035;28;20511;-76
2023/10/03 04:36:36;;;;;;;8.18;3.30;;;12.80;99.90;;;;;;5049548;28;20049;-76
2023/10/03 04:39:03;;;;;;;9.65;4.03;;;12.80;99.90;;;;;;5035244;28;20496;-76
2023/10/03 04:41:33;;;;;;;9.77;4.15;;;12.80;99.90;;;;;;5044994;28;20044;-76
2023/10/03 04:44:02;;;;;;;10.75;3.60;;;12.80;99.90;;;;;;5028976;28;20136;-76
2023/10/03 04:46:29;;;;;;;9.38;3.75;;;12.80;99.90;;;;;;5030631;28;20049;-76
2023/10/03 04:48:56;;;;;;;14.23;3.65;;;12.80;99.90;;;;;;5029171;28;20127;-76
2023/10/03 04:51:24;;;;;;;9.73;3.75;;;12.80;99.90;;;;;;5042992;28;20068;-76
2023/10/03 04:53:51;;;;;;;10.10;4.13;;;12.80;99.90;;;;;;5029324;28;20045;-76
2023/10/03 04:56:18;;;;;;;10.75;3.67;;;12.80;99.90;;;;;;5027677;28;21110;-76
2023/10/03 04:58:45;;;;;;;9.00;4.05;;;12.80;99.90;;;;;;5028221;28;20143;-76
2023/10/03 05:01:14;;;;;;;13.88;4.15;;;12.80;99.90;;;;;;5046829;28;20053;-76
2023/10/03 05:03:41;;;;;;;10.38;4.82;;;12.80;99.90;;;;;;5048353;28;20041;-76
2023/10/03 05:06:11;;;;;;;9.38;4.70;;;12.80;99.90;;;;;;5042240;28;20476;-76
2023/10/03 05:08:38;;;;;;;12.13;4.70;;;12.90;99.90;;;;;;5045144;28;20187;-77
2023/10/03 05:11:06;;;;;;;11.32;4.20;;;12.90;99.90;;;;;;5022071;28;20742;-77
2023/10/03 05:13:34;;;;;;;11.57;5.07;;;12.80;99.90;;;;;;5023156;28;20049;-77
2023/10/03 05:16:01;;;;;;;10.27;4.80;;;12.90;99.90;;;;;;5045671;28;20056;-77
2023/10/03 05:18:30;;;;;;;8.93;4.47;;;12.90;99.90;;;;;;5037097;28;20041;-77
2023/10/03 05:20:57;;;;;;;15.02;4.97;;;12.90;99.90;;;;;;5053888;28;20056;-77
2023/10/03 05:23:25;;;;;;;12.93;4.95;;;12.90;99.90;;;;;;5030151;28;20048;-77
2023/10/03 05:25:52;;;;;;;15.07;5.18;;;12.90;99.90;;;;;;5030603;28;20516;-78
2023/10/03 05:28:19;;;;;;;9.73;3.72;;;12.90;99.90;;;;;;5047447;28;20126;-78
2023/10/03 05:30:46;;;;;;;11.38;3.97;;;13.00;99.90;;;;;;5039186;28;20138;-77
2023/10/03 05:33:13;;;;;;;8.30;3.92;;;13.00;99.90;;;;;;5028523;28;20045;-78
2023/10/03 05:35:41;;;;;;;13.60;4.50;;;13.60;99.90;;;;;;5032992;28;20044;-78
2023/10/03 05:38:08;;;;;;;11.27;3.88;;;13.00;99.90;;;;;;5047154;28;20045;-78
2023/10/03 05:40:36;;;;;;;11.50;4.28;;;12.90;99.90;;;;;;5042977;28;20060;-78
2023/10/03 05:43:05;;;;;;;9.43;4.03;;;13.00;99.90;;;;;;5025565;28;20103;-79
2023/10/03 05:45:37;;;;;;;15.45;4.38;;;13.10;99.90;;;;;;5052829;28;20052;-81
2023/10/03 05:48:05;;;;;;;8.40;4.03;;;13.10;99.90;;;;;;5033144;28;20487;-81
2023/10/03 05:50:34;;;;;;;9.27;3.63;;;13.10;99.90;;;;;;5022541;28;20052;-81
2023/10/03 05:53:06;;;;;;;8.90;3.75;;;13.20;99.90;;;;;;5027247;28;20693;-81
2023/10/03 05:55:34;;;;;;;10.88;4.47;;;13.30;99.90;;;;;;5042390;28;20055;-81
2023/10/03 05:58:02;;;;;;;11.43;3.45;;;13.40;99.90;;;;;;4990947;28;20068;-81
2023/10/03 06:00:31;;;;;;;8.93;3.13;;;13.40;99.90;;;;;;5042525;28;22254;-82
2023/10/03 06:02:58;;;;;;;8.40;3.50;;;13.50;99.90;;;;;;5025571;28;20060;-81
2023/10/03 06:05:27;;;;;;;6.72;2.60;;;13.50;99.90;;;;;;5043996;28;20064;-81
2023/10/03 06:07:54;;;;;;;8.63;3.22;;;13.50;99.90;;;;;;5019202;28;20479;-81
2023/10/03 06:10:22;;;;;;;8.68;3.42;;;13.50;99.90;;;;;;5025746;28;20060;-81
2023/10/03 06:12:52;;;;;;;11.75;4.53;;;13.60;99.90;;;;;;5033997;28;20067;-81
2023/10/03 06:15:20;;;;;;;7.70;2.95;;;13.60;99.90;;;;;;5043365;28;20045;-81
2023/10/03 06:17:47;;;;;;;9.43;3.42;;;13.70;99.90;;;;;;5040727;28;20037;-81
2023/10/03 06:20:15;;;;;;;10.00;3.40;;;13.80;99.90;;;;;;5036665;28;20057;-82
2023/10/03 06:22:42;;;;;;;10.00;3.45;;;13.80;99.90;;;;;;5018448;28;20060;-81
2023/10/03 06:25:11;;;;;;;7.25;3.42;;;13.90;99.90;;;;;;5043331;28;20048;-81
2023/10/03 06:27:38;;;;;;;5.45;2.78;;;14.00;99.90;;;;;;5040658;28;20048;-83
2023/10/03 06:30:07;;;;;;;13.85;4.38;;;14.10;99.90;;;;;;5040719;28;20064;-81
2023/10/03 06:32:37;;;;;;;10.10;3.83;;;14.20;99.90;;;;;;5037157;28;20056;-83
2023/10/03 06:35:05;;;;;;;4.93;2.83;;;14.30;99.90;;;;;;5017496;28;20057;-81
2023/10/03 06:37:37;;;;;;;8.70;3.45;;;14.30;99.90;;;;;;5036859;28;20053;-82
2023/10/03 06:40:07;;;;;;;12.90;3.25;;;14.40;99.90;;;;;;5041279;28;20143;-82
2023/10/03 06:42:35;;;;;;;8.68;3.08;;;14.40;99.90;;;;;;5039238;28;20060;-82
2023/10/03 06:45:03;;;;;;;8.00;2.65;;;14.50;99.90;;;;;;5040529;28;20057;-81
2023/10/03 06:47:33;;;;;;;9.20;3.17;;;14.60;99.90;;;;;;5025638;28;20126;-83
2023/10/03 06:50:01;;;;;;;6.55;3.45;;;14.70;99.90;;;;;;5055456;28;22273;-82
2023/10/03 06:52:28;;;;;;;8.05;3.65;;;14.80;99.90;;;;;;5041956;28;20055;-81
2023/10/03 06:54:55;;;;;;;9.02;3.38;;;15.00;99.90;;;;;;5039340;28;20057;-83
2023/10/03 06:57:22;;;;;;;6.55;3.38;;;15.10;99.90;;;;;;5027071;28;20051;-80
2023/10/03 06:59:50;;;;;;;10.98;3.53;;;15.20;99.90;;;;;;5029139;28;20060;-80
2023/10/03 07:02:18;;;;;;;8.70;3.13;;;15.30;99.90;;;;;;5047667;28;20056;-80
2023/10/03 07:04:45;;;;;;;12.10;4.22;;;15.40;99.90;;;;;;5047025;28;20091;-82
2023/10/03 07:07:12;;;;;;;10.82;3.60;;;15.50;99.90;;;;;;5061916;28;20049;-79
2023/10/03 07:09:40;;;;;;;8.93;3.90;;;15.70;99.90;;;;;;5044478;28;20168;-82
2023/10/03 07:12:08;;;;;;;9.40;2.65;;;15.70;99.90;;;;;;5026897;28;20057;-80
2023/10/03 07:14:35;;;;;;;9.02;3.80;;;15.90;99.90;;;;;;5047507;28;20045;-79
2023/10/03 07:17:05;;;;;;;9.65;3.92;;;15.90;99.90;;;;;;5046792;28;20040;-82
2023/10/03 07:19:33;;;;;;;8.45;3.58;;;16.00;99.90;;;;;;5034803;28;20143;-82
2023/10/03 07:22:00;;;;;;;8.63;3.28;;;16.20;99.90;;;;;;5041990;28;20102;-80
2023/10/03 07:24:29;;;;;;;10.63;3.22;;;16.40;99.90;;;;;;5037852;28;20135;-79
2023/10/03 07:26:56;;;;;;;7.75;3.60;;;16.50;99.90;;;;;;5048004;28;20040;-81
2023/10/03 07:29:23;;;;;;;11.25;3.88;;;16.60;99.90;;;;;;5041428;28;20144;-80
2023/10/03 07:31:50;;;;;;;8.63;2.95;;;16.70;99.90;;;;;;5022314;28;20742;-80
2023/10/03 07:34:18;;;;;;;10.13;3.63;;;16.90;99.90;;;;;;5042986;28;20069;-78
2023/10/03 07:36:45;;;;;;;9.80;3.72;;;17.10;99.90;;;;;;5026151;28;20053;-79
2023/10/03 07:39:17;;;;;;;8.13;3.90;;;17.10;99.10;;;;;;5022378;28;20072;-81
2023/10/03 07:41:44;;;;;;;8.07;3.35;;;17.20;99.20;;;;;;5023776;28;20407;-80
2023/10/03 07:44:11;;;;;;;8.88;3.72;;;17.40;98.70;;;;;;5032697;28;20071;-79
2023/10/03 07:46:41;;;;;;;11.27;3.17;;;17.50;98.60;;;;;;5048221;28;20049;-84
2023/10/03 07:49:09;;;;;;;6.68;3.30;;;17.60;98.50;;;;;;5043055;28;20045;-80
2023/10/03 07:51:37;;;;;;;12.98;3.30;;;17.60;97.40;;;;;;5023551;28;20135;-81
2023/10/03 07:54:05;;;;;;;12.55;3.00;;;17.70;97.30;;;;;;5048490;28;21096;-79
2023/10/03 07:56:33;;;;;;;10.95;3.50;;;17.90;97.80;;;;;;5029124;28;20470;-80
2023/10/03 07:59:01;;;;;;;15.85;4.05;;;18.00;97.70;;;;;;5051726;28;20052;-78
2023/10/03 08:01:32;;;;;;;15.85;3.70;;;18.10;98.00;;;;;;5027324;28;22524;-79
2023/10/03 08:04:20;;;;;;;11.05;2.75;;;18.20;98.20;;;;;;5045657;28;23881;-80
2023/10/03 08:06:48;;;;;;;16.45;3.83;;;18.30;97.50;;;;;;5042402;28;20060;-79
2023/10/03 08:09:15;;;;;;;13.77;3.47;;;18.30;97.60;;;;;;5016734;28;20083;-79
2023/10/03 08:11:46;;;;;;;13.18;3.97;;;18.30;98.30;;;;;;5034820;28;20111;-79
2023/10/03 08:14:16;;;;;;;9.05;3.42;;;18.40;98.30;;;;;;5040994;28;20454;-78
2023/10/03 08:16:45;;;;;;;8.98;3.03;;;18.50;97.30;;;;;;5041436;28;20041;-79
2023/10/03 08:19:24;;;;;;;11.38;3.20;;;18.70;97.30;;;;;;5039647;28;20052;-83
2023/10/03 08:21:53;;;;;;;11.50;3.00;;;18.90;96.70;;;;;;5044924;28;20056;-79
2023/10/03 08:24:25;;;;;;;7.05;3.30;;;19.00;96.20;;;;;;5042344;28;20074;-78
2023/10/03 08:26:53;;;;;;;9.73;3.33;;;19.10;96.20;;;;;;5043756;28;20049;-78
2023/10/03 08:29:21;;;;;;;10.05;3.30;;;19.10;95.80;;;;;;5021446;28;20049;-80
2023/10/03 08:31:58;;;;;;;9.98;3.60;;;19.20;95.30;;;;;;5026243;28;20060;-77
2023/10/03 08:34:30;;;;;;;9.07;3.45;;;19.30;95.30;;;;;;5034187;28;20130;-78
2023/10/03 08:37:01;;;;;;;10.37;2.80;;;19.40;95.60;;;;;;5040309;28;20063;-81
2023/10/03 08:39:32;;;;;;;13.93;4.00;;;19.50;95.20;;;;;;5032903;28;20052;-78
2023/10/03 08:42:12;;;;;;;9.77;3.17;;;19.60;95.00;;;;;;5035423;28;20061;-79
2023/10/03 08:44:49;;;;;;;7.47;2.65;;;19.70;95.10;;;;;;5041415;28;21444;-79
2023/10/03 08:47:31;;;;;;;7.40;3.60;;;19.80;95.00;;;;;;5028531;28;20083;-80
2023/10/03 08:50:14;;;;;;;11.85;3.33;;;19.90;94.30;;;;;;5038259;28;20053;-78
2023/10/03 08:52:49;;;;;;;10.32;3.78;;;19.90;94.70;;;;;;5042291;28;20049;-79
2023/10/03 08:55:22;;;;;;;10.88;3.65;;;20.10;94.50;;;;;;5043263;28;20048;-79
2023/10/03 08:57:50;;;;;;;9.30;2.72;;;20.20;93.30;;;;;;5026831;28;20047;-79
2023/10/03 09:00:25;;;;;;;5.90;3.03;;;20.10;93.20;;;;;;5049403;28;20527;-81
2023/10/03 09:03:09;;;;;;;5.97;2.70;;;20.20;93.70;;;;;;5042778;28;20095;-81
2023/10/03 09:05:40;;;;;;;10.07;3.03;;;20.30;93.00;;;;;;5047472;28;20041;-79
2023/10/03 09:08:09;;;;;;;7.93;3.03;;;20.50;93.00;;;;;;5045865;28;20575;-84
2023/10/03 09:10:55;;;;;;;8.00;3.35;;;20.60;92.50;;;;;;5042981;28;20053;-80
2023/10/03 09:13:24;;;;;;;7.53;2.72;;;20.60;92.60;;;;;;5023058;28;20107;-80
2023/10/03 09:15:59;;;;;;;9.30;3.08;;;20.70;91.90;;;;;;5029017;28;20136;-78
2023/10/03 09:18:31;;;;;;;8.55;2.45;;;20.70;92.00;;;;;;5027216;28;20053;-80
2023/10/03 09:21:04;;;;;;;6.25;2.50;;;20.80;91.30;;;;;;5015302;28;22376;-81
2023/10/03 09:23:41;;;;;;;7.32;2.45;;;20.80;91.80;;;;;;5042580;28;20056;-80
2023/10/03 09:26:08;;;;;;;7.93;2.50;;;20.90;90.90;;;;;;5061222;28;20041;-81
2023/10/03 09:28:35;;;;;;;7.78;2.95;;;21.00;90.80;;;;;;5040568;28;20115;-79
2023/10/03 09:31:10;;;;;;;10.82;2.95;;;21.00;90.40;;;;;;5019578;28;20067;-81
2023/10/03 09:33:39;;;;;;;8.02;2.22;;;21.10;90.50;;;;;;5039482;28;20049;-81
2023/10/03 09:36:07;;;;;;;7.18;2.15;;;21.20;90.00;;;;;;5042875;28;20048;-80
2023/10/03 09:38:42;;;;;;;5.60;1.77;;;21.20;90.40;;;;;;5034931;28;20129;-79
2023/10/03 09:41:21;;;;;;;8.40;2.40;;;21.40;89.40;;;;;;5044997;28;20048;-77
2023/10/03 09:43:53;;;;;;;6.53;2.17;;;21.30;89.60;;;;;;5041265;28;20183;-78
2023/10/03 09:46:41;;;;;;;8.57;2.22;;;21.50;89.40;;;;;;5024254;28;20135;-78
2023/10/03 09:49:13;;;;;;;11.23;2.27;;;21.50;89.10;;;;;;5044004;28;20950;-82
2023/10/03 09:51:53;;;;;;;8.48;2.40;;;21.60;89.00;;;;;;5028993;28;20561;-80
2023/10/03 09:54:30;;;;;;;5.13;2.03;;;21.70;88.30;;;;;;5041119;28;22538;-80
2023/10/03 09:57:00;;;;;;;6.43;1.73;;;21.70;87.60;;;;;;5013818;28;20060;-79
2023/10/03 09:59:32;;;;;;;5.45;2.10;;;21.90;87.40;;;;;;5024119;28;20127;-81
2023/10/03 10:02:00;;;;;;;4.55;1.25;;;21.90;87.10;;;;;;5042489;28;20079;-81
2023/10/03 10:04:30;;;;;;;2.05;0.80;;;21.80;85.60;;;;;;5043682;28;20135;-81
2023/10/03 10:07:16;;;;;;;5.18;1.60;;;21.90;85.40;;;;;;5025301;28;20072;-81
2023/10/03 10:10:12;;;;;;;3.67;1.20;;;21.90;84.90;;;;;;5035861;28;22424;-81
2023/10/03 10:13:20;;;;;;;4.57;1.85;;;22.00;85.10;;;;;;5039383;28;20069;-79
2023/10/03 10:16:00;;;;;;;17.63;2.70;;;22.10;85.40;;;;;;5020598;28;20067;-81
2023/10/03 10:18:46;;;;;;;6.15;1.42;;;22.30;86.90;;;;;;5033845;28;20041;-82
2023/10/03 10:21:31;;;;;;;4.75;1.50;;;22.30;85.00;;;;;;5041559;28;20063;-80
2023/10/03 10:24:13;;;;;;;3.22;1.23;;;22.20;84.30;;;;;;5040449;28;20518;-80
2023/10/03 10:26:52;;;;;;;4.45;1.00;;;22.30;84.10;;;;;;5017925;28;20045;-80
2023/10/03 10:29:24;;;;;;;5.32;1.45;;;22.30;83.80;;;;;;5041941;28;20975;-82
2023/10/03 10:31:58;;;;;;;4.40;1.73;;;22.30;82.50;;;;;;5048023;28;20037;-83
2023/10/03 10:34:29;;;;;;;2.78;0.95;;;22.40;83.00;;;;;;5039319;28;20041;-79
2023/10/03 10:37:15;;;;;;;2.05;1.00;;;22.40;83.10;;;;;;5038563;28;20067;-79
2023/10/03 10:40:04;;;;;;;3.70;1.00;;;22.50;82.60;;;;;;5029280;28;20492;-81
2023/10/03 10:42:52;;;;;;;2.88;1.10;;;22.40;82.60;;;;;;5026546;28;20056;-82
2023/10/03 10:45:21;;;;;;;4.72;1.58;;;22.50;82.70;;;;;;5021952;28;20106;-83
2023/10/03 10:47:54;;;;;;;4.47;0.95;;;22.60;82.10;;;;;;5024486;28;20064;-80
2023/10/03 10:50:25;;;;;;;7.82;1.33;;;22.70;82.30;;;;;;5038239;28;22579;-79
2023/10/03 10:52:57;;;;;;;3.92;0.70;;;22.70;82.80;;;;;;5041171;28;20436;-80
2023/10/03 10:55:25;;;;;;;6.82;1.38;;;22.70;82.00;;;;;;5024642;28;20503;-81
2023/10/03 10:58:12;;;;;;;4.95;1.25;;;22.80;80.50;;;;;;5052228;28;20048;-78
2023/10/03 11:00:40;;;;;;;4.90;1.30;;;22.80;80.50;;;;;;5048324;28;20603;-81
2023/10/03 11:03:08;;;;;;;3.63;1.30;;;22.70;81.80;;;;;;5037542;28;20045;-78
2023/10/03 11:05:50;;;;;;;5.35;1.15;;;22.90;81.80;;;;;;5022368;28;20077;-79
2023/10/03 11:08:18;;;;;;;7.60;1.30;;;23.00;81.00;;;;;;5019038;28;20053;-79
2023/10/03 11:10:55;;;;;;;7.65;1.17;;;23.00;80.00;;;;;;5043088;28;20036;-83
2023/10/03 11:13:23;;;;;;;4.47;1.83;;;23.00;80.10;;;;;;5033269;28;20057;-81
2023/10/03 11:15:52;;;;;;;2.97;1.02;;;23.00;79.30;;;;;;5026223;28;20116;-78
2023/10/03 11:18:32;;;;;;;5.35;1.20;;;23.00;79.30;;;;;;5041861;28;20175;-80
2023/10/03 11:21:03;;;;;;;2.00;0.65;;;23.00;79.50;;;;;;5046083;28;20041;-81
2023/10/03 11:23:31;;;;;;;4.25;1.20;;;23.00;78.80;;;;;;5043027;28;20089;-81
2023/10/03 11:26:01;;;;;;;2.60;0.93;;;23.10;78.90;;;;;;5018542;28;20530;-80
2023/10/03 11:28:28;;;;;;;4.53;0.98;;;23.10;78.20;;;;;;5034309;28;20049;-78
2023/10/03 11:31:04;;;;;;;3.72;1.08;;;23.10;78.20;;;;;;5021048;28;20045;-80
2023/10/03 11:33:45;;;;;;;3.85;0.90;;;23.10;77.80;;;;;;5040123;28;20598;-80
2023/10/03 11:36:14;;;;;;;6.00;1.13;;;23.20;78.50;;;;;;5037083;28;20045;-81
2023/10/03 11:38:49;;;;;;;6.57;1.67;;;23.20;79.10;;;;;;5007960;28;20148;-79
2023/10/03 11:41:33;;;;;;;3.92;0.77;;;23.30;79.10;;;;;;5024928;28;20061;-81
2023/10/03 11:44:01;;;;;;;7.43;1.02;;;23.30;78.70;;;;;;5032917;28;20048;-79
2023/10/03 11:46:39;;;;;;;2.95;0.90;;;23.20;78.10;;;;;;5026450;28;20645;-81
2023/10/03 11:49:08;;;;;;;2.80;0.88;;;23.30;77.90;;;;;;5056680;28;20045;-77
2023/10/03 11:51:38;;;;;;;3.05;0.90;;;23.30;78.20;;;;;;5029951;28;20048;-79
2023/10/03 11:54:08;;;;;;;3.50;1.27;;;23.30;77.70;;;;;;5028722;28;20051;-78
2023/10/03 11:56:46;;;;;;;2.78;0.77;;;23.30;78.70;;;;;;5018981;28;20045;-77
2023/10/03 11:59:15;;;;;;;4.00;1.65;;;23.30;78.10;;;;;;5042814;28;22599;-79
2023/10/03 12:01:46;;;;;;;2.63;1.15;;;23.30;79.10;;;;;;5031877;28;20049;-78
2023/10/03 12:04:14;;;;;;;3.13;0.75;;;23.40;77.50;;;;;;5043703;28;20427;-82
2023/10/03 12:06:42;;;;;;;3.38;0.80;;;23.30;77.50;;;;;;5043593;28;20047;-78
2023/10/03 12:09:09;;;;;;;5.35;1.10;;;23.30;78.80;;;;;;5042183;28;22441;-79
2023/10/03 12:11:40;;;;;;;4.80;0.65;;;23.30;78.30;;;;;;5042778;28;20053;-78
2023/10/03 12:14:11;;;;;;;6.53;1.63;;;23.30;78.00;;;;;;5040805;28;20067;-78
2023/10/03 12:16:38;;;;;;;5.50;1.50;;;23.30;77.50;;;;;;5044047;28;20111;-78
2023/10/03 12:19:07;;;;;;;2.85;1.00;;;23.30;77.60;;;;;;5018619;28;20037;-79
2023/10/03 12:21:34;;;;;;;3.10;0.90;;;23.30;78.60;;;;;;5042329;28;20867;-79
2023/10/03 12:24:01;;;;;;;4.78;0.80;;;23.30;77.90;;;;;;5023163;28;20130;-79
2023/10/03 12:26:29;;;;;;;3.70;0.90;;;23.30;77.20;;;;;;5020547;28;20071;-78
2023/10/03 12:28:57;;;;;;;6.30;1.08;;;23.30;77.50;;;;;;5039476;28;20114;-77
2023/10/03 12:31:28;;;;;;;5.20;0.82;;;23.30;78.70;;;;;;5024635;28;20047;-78
2023/10/03 12:33:56;;;;;;;5.05;0.82;;;23.40;78.10;;;;;;5019898;28;20049;-79
2023/10/03 12:36:23;;;;;;;3.83;0.93;;;23.40;78.40;;;;;;5033953;28;20052;-79
2023/10/03 12:38:50;;;;;;;2.45;0.85;;;23.30;77.90;;;;;;5039303;28;20053;-79
2023/10/03 12:41:19;;;;;;;3.13;0.90;;;23.30;77.70;;;;;;5039009;28;20171;-78
2023/10/03 12:43:47;;;;;;;4.68;1.10;;;23.30;78.00;;;;;;5022845;28;20065;-82
2023/10/03 12:46:14;;;;;;;3.53;0.70;;;23.30;77.80;;;;;;5048142;28;20061;-80
2023/10/03 12:48:42;;;;;;;2.10;0.52;;;23.20;77.40;;;;;;5024513;28;20059;-79
2023/10/03 12:51:09;;;;;;;3.67;0.95;;;23.20;77.90;;;;;;5022785;28;20052;-79
2023/10/03 12:53:36;;;;;;;2.50;0.75;;;23.30;77.20;;;;;;5042948;28;20045;-79
2023/10/03 12:56:08;;;;;;;2.92;1.08;;;23.20;77.20;;;;;;5024136;28;20060;-81
2023/10/03 12:58:37;;;;;;;3.22;0.88;;;23.20;77.40;;;;;;5033322;28;20052;-79
2023/10/03 13:01:05;;;;;;;6.32;1.02;;;23.20;77.50;;;;;;5040463;28;22429;-79
2023/10/03 13:03:32;;;;;;;4.07;0.90;;;23.30;76.80;;;;;;5015187;28;20091;-81
2023/10/03 13:06:00;;;;;;;3.17;1.00;;;23.20;76.50;;;;;;5022160;28;20052;-80
2023/10/03 13:08:28;;;;;;;2.67;0.70;;;23.20;77.40;;;;;;5047274;28;20527;-78
2023/10/03 13:11:00;;;;;;;4.65;1.00;;;23.20;77.60;;;;;;5026151;28;20143;-79